Time;durP1;ratioP1;P1;durP2;ratioP2;P2;SDS_P1;SDS_P2;PMS_P1;PMS_P2;Temp;Humidity;BMP_temperature;BMP_pressure;BME280_temperature;BME280_humidity;BME280_pressure;Samples;Min_cycle;Max_cycle;Signal;HPM_P1;HPM_P2
2020/12/18 00:01:56;;;;;;;20.25;15.83;;;;;;;1.98;82.10;100568.18;1788884;80;21188;-69
2020/12/18 00:04:33;;;;;;;22.32;16.25;;;;;;;2.03;82.15;100569.06;1873620;75;22634;-70
2020/12/18 00:07:01;;;;;;;17.82;14.43;;;;;;;1.98;81.96;100567.31;1841592;77;20935;-70
2020/12/18 00:09:29;;;;;;;19.17;15.38;;;;;;;1.98;82.02;100569.89;1841548;77;21348;-70
2020/12/18 00:11:56;;;;;;;17.92;13.65;;;;;;;1.96;81.74;100568.58;1841463;78;21550;-70
2020/12/18 00:14:24;;;;;;;15.58;11.93;;;;;;;1.93;81.88;100566.40;1822786;78;21475;-70
2020/12/18 00:16:52;;;;;;;15.03;12.30;;;;;;;1.93;82.00;100564.70;1808516;79;21061;-70
2020/12/18 00:19:19;;;;;;;17.52;13.43;;;;;;;1.97;82.17;100569.45;1808574;78;21109;-70
2020/12/18 00:21:47;;;;;;;18.67;14.03;;;;;;;2.02;82.26;100563.49;1808598;79;21480;-70
2020/12/18 00:24:15;;;;;;;20.68;15.03;;;;;;;2.08;82.09;100558.86;1808456;79;21076;-70
2020/12/18 00:26:43;;;;;;;18.37;14.50;;;;;;;2.10;81.88;100562.30;1808575;79;21450;-70
2020/12/18 00:29:10;;;;;;;24.50;14.87;;;;;;;2.07;81.77;100560.56;1808640;79;21501;-70
2020/12/18 00:31:37;;;;;;;20.48;15.32;;;;;;;2.05;81.72;100561.39;1808529;79;21113;-70
2020/12/18 00:34:05;;;;;;;20.72;15.85;;;;;;;2.04;81.81;100563.09;1808509;79;21175;-70
2020/12/18 00:36:32;;;;;;;25.25;18.12;;;;;;;2.05;81.95;100572.94;1808448;79;21084;-70
2020/12/18 00:39:02;;;;;;;30.70;21.37;;;;;;;2.05;81.96;100571.65;1808408;78;21041;-70
2020/12/18 00:41:29;;;;;;;37.67;24.72;;;;;;;2.04;81.91;100569.50;1808593;79;21069;-70
2020/12/18 00:43:58;;;;;;;32.55;21.65;;;;;;;2.01;81.82;100557.06;1808481;79;21089;-70
2020/12/18 00:46:26;;;;;;;27.48;17.87;;;;;;;1.95;81.85;100554.45;1808566;79;21811;-70
2020/12/18 00:48:54;;;;;;;25.48;18.00;;;;;;;1.95;82.00;100550.60;1808433;79;21087;-70
2020/12/18 00:51:22;;;;;;;24.87;16.67;;;;;;;1.98;82.02;100555.35;1808496;78;21045;-70
2020/12/18 00:53:49;;;;;;;34.78;22.13;;;;;;;1.96;81.89;100550.62;1808457;78;21109;-70
2020/12/18 00:56:17;;;;;;;24.57;16.87;;;;;;;1.94;81.93;100551.45;1808579;79;21537;-70
2020/12/18 00:58:45;;;;;;;26.37;16.77;;;;;;;1.91;81.91;100538.58;1808484;79;21199;-70
2020/12/18 01:01:15;;;;;;;27.77;17.95;;;;;;;1.90;81.88;100544.13;1808553;78;21089;-70
2020/12/18 01:03:43;;;;;;;30.92;19.20;;;;;;;1.92;81.95;100545.44;1811357;79;21045;-70
2020/12/18 01:06:11;;;;;;;30.55;19.27;;;;;;;1.95;81.93;100542.48;1814229;78;21493;-70
2020/12/18 01:08:40;;;;;;;30.48;21.23;;;;;;;1.98;81.89;100537.39;1813915;79;21470;-70
2020/12/18 01:11:09;;;;;;;28.85;19.67;;;;;;;1.98;82.01;100528.83;1814233;79;21431;-70
2020/12/18 01:13:37;;;;;;;28.70;18.95;;;;;;;1.99;81.88;100527.99;1814109;79;21159;-70
2020/12/18 01:16:10;;;;;;;28.60;18.42;;;;;;;1.97;82.00;100529.67;1813586;79;21597;-70
2020/12/18 01:18:39;;;;;;;21.27;14.53;;;;;;;1.97;82.08;100534.38;1786682;79;21140;-70
2020/12/18 01:21:09;;;;;;;19.65;13.83;;;;;;;1.98;81.93;100530.98;1812191;79;21073;-70
2020/12/18 01:23:37;;;;;;;17.48;13.05;;;;;;;2.00;81.78;100529.26;1813641;79;21373;-70
2020/12/18 01:26:06;;;;;;;19.70;14.43;;;;;;;2.02;81.87;100534.41;1813409;79;21163;-70
2020/12/18 01:28:34;;;;;;;22.73;16.07;;;;;;;2.02;81.84;100531.84;1813661;79;21061;-69
2020/12/18 01:31:02;;;;;;;29.85;19.87;;;;;;;2.03;81.77;100531.86;1813537;79;21526;-70
2020/12/18 01:33:32;;;;;;;27.05;17.90;;;;;;;2.02;81.71;100524.14;1813634;79;21061;-70
2020/12/18 01:36:00;;;;;;;28.17;18.30;;;;;;;1.99;81.61;100516.02;1813700;78;22011;-70
2020/12/18 01:38:31;;;;;;;21.55;14.78;;;;;;;1.96;81.53;100517.27;1813572;78;21498;-70
2020/12/18 01:41:00;;;;;;;34.23;21.85;;;;;;;1.92;81.52;100521.06;1813586;79;21096;-70
2020/12/18 01:43:28;;;;;;;49.42;30.32;;;;;;;1.91;81.61;100518.92;1813547;78;21155;-70
2020/12/18 01:45:57;;;;;;;30.70;19.87;;;;;;;1.89;81.52;100523.59;1813662;79;21842;-70
2020/12/18 01:48:25;;;;;;;28.77;18.30;;;;;;;1.87;81.57;100526.56;1762074;79;22253;-70
2020/12/18 01:50:54;;;;;;;21.20;14.65;;;;;;;1.84;81.62;100528.67;1812779;78;21093;-70
2020/12/18 01:53:25;;;;;;;20.10;13.15;;;;;;;1.82;81.51;100525.22;1813551;79;21069;-70
2020/12/18 01:55:54;;;;;;;17.62;13.20;;;;;;;1.78;81.50;100524.78;1785697;79;21033;-70
2020/12/18 01:58:22;;;;;;;18.65;13.53;;;;;;;1.78;81.52;100524.78;1813646;79;21053;-70
2020/12/18 02:00:51;;;;;;;19.25;13.83;;;;;;;1.79;81.35;100517.95;1813563;79;21928;-70
2020/12/18 02:03:20;;;;;;;25.25;16.65;;;;;;;1.73;81.30;100524.72;1810452;79;21494;-70
2020/12/18 02:05:52;;;;;;;25.02;17.48;;;;;;;1.69;81.37;100522.09;1806557;79;21073;-70
2020/12/18 02:08:30;;;;;;;20.50;13.85;;;;;;;1.68;81.50;100525.50;1805869;79;21105;-69
2020/12/18 02:11:26;;;;;;;17.75;13.32;;;;;;;1.76;81.48;100526.88;1890124;76;22809;-70
2020/12/18 02:13:56;;;;;;;17.57;12.58;;;;;;;1.71;81.59;100525.55;1868310;76;21028;-69
2020/12/18 02:16:25;;;;;;;22.17;15.93;;;;;;;1.73;81.61;100520.88;1807132;79;21374;-70
2020/12/18 02:18:56;;;;;;;20.15;14.10;;;;;;;1.75;81.47;100520.03;1822078;78;21095;-69
2020/12/18 02:21:23;;;;;;;25.37;17.02;;;;;;;1.73;81.35;100518.31;1807211;78;21596;-68
2020/12/18 02:23:51;;;;;;;23.62;16.40;;;;;;;1.68;81.32;100521.23;1822857;78;21095;-69
2020/12/18 02:26:19;;;;;;;18.50;13.53;;;;;;;1.65;81.28;100515.20;1807112;79;21120;-69
2020/12/18 02:28:49;;;;;;;19.20;14.45;;;;;;;1.62;81.24;100521.16;1822974;78;21385;-69
2020/12/18 02:31:18;;;;;;;22.22;15.83;;;;;;;1.64;81.42;100515.63;1806932;79;21183;-69
2020/12/18 02:34:11;;;;;;;25.20;16.25;;;;;;;1.73;81.45;100518.73;1873653;76;22636;-69
2020/12/18 02:36:41;;;;;;;26.33;18.20;;;;;;;1.74;81.35;100516.61;1841269;77;21493;-70
2020/12/18 02:39:09;;;;;;;20.55;14.95;;;;;;;1.77;81.07;100514.50;1841582;77;22461;-70
2020/12/18 02:41:38;;;;;;;18.67;13.43;;;;;;;1.71;81.01;100511.44;1841545;77;21475;-70
2020/12/18 02:44:08;;;;;;;16.80;12.25;;;;;;;1.62;80.99;100519.88;1835387;77;21021;-69
2020/12/18 02:46:38;;;;;;;16.50;12.55;;;;;;;1.53;81.19;100511.23;1841254;78;21085;-69
2020/12/18 02:49:05;;;;;;;20.20;15.30;;;;;;;1.48;81.55;100517.58;1841599;78;21104;-70
2020/12/18 02:51:35;;;;;;;22.58;15.93;;;;;;;1.48;81.83;100516.72;1839999;78;21796;-70
2020/12/18 02:54:13;;;;;;;21.70;15.48;;;;;;;1.49;82.06;100516.74;1806932;78;21478;-70
2020/12/18 02:56:55;;;;;;;17.98;13.88;;;;;;;1.53;82.22;100518.50;1838283;77;21139;-70
2020/12/18 02:59:40;;;;;;;18.95;12.73;;;;;;;1.57;82.24;100513.86;1841568;77;21057;-70
2020/12/18 03:02:08;;;;;;;16.15;12.00;;;;;;;1.57;81.98;100515.56;1841549;77;21097;-70
2020/12/18 03:04:36;;;;;;;16.62;11.25;;;;;;;1.54;81.94;100512.95;1841524;77;21183;-70
2020/12/18 03:07:08;;;;;;;14.05;11.03;;;;;;;1.49;81.89;100514.18;1837442;78;21085;-70
2020/12/18 03:09:37;;;;;;;17.12;12.18;;;;;;;1.37;82.02;100515.33;1841512;78;20956;-70
2020/12/18 03:12:05;;;;;;;19.20;13.15;;;;;;;1.30;82.33;100514.38;1841452;78;21097;-70
2020/12/18 03:14:33;;;;;;;22.87;16.40;;;;;;;1.30;82.61;100518.22;1821485;78;21052;-70
2020/12/18 03:17:02;;;;;;;18.70;14.63;;;;;;;1.32;82.74;100515.27;1807458;79;22641;-70
2020/12/18 03:19:42;;;;;;;15.65;11.60;;;;;;;1.35;82.88;100514.02;1807269;78;21172;-70
2020/12/18 03:22:20;;;;;;;15.43;11.73;;;;;;;1.45;82.80;100514.98;1873651;76;22770;-70
2020/12/18 03:24:56;;;;;;;15.48;11.38;;;;;;;1.40;82.65;100511.95;1789940;78;21093;-70
2020/12/18 03:27:44;;;;;;;16.20;11.60;;;;;;;1.38;82.60;100518.33;1839667;77;21227;-70
2020/12/18 03:30:12;;;;;;;16.50;12.63;;;;;;;1.33;82.82;100525.09;1841593;78;21062;-70
2020/12/18 03:32:40;;;;;;;14.00;10.90;;;;;;;1.30;82.87;100521.20;1811297;78;21058;-70
2020/12/18 03:35:10;;;;;;;15.18;11.95;;;;;;;1.27;82.91;100517.31;1840544;77;20926;-69
2020/12/18 03:37:39;;;;;;;15.70;11.97;;;;;;;1.24;83.10;100520.70;1841702;78;21451;-69
2020/12/18 03:40:09;;;;;;;16.97;13.13;;;;;;;1.26;83.11;100522.00;1841508;77;21345;-69
2020/12/18 03:42:39;;;;;;;19.95;13.65;;;;;;;1.26;83.26;100523.28;1841061;77;21160;-69
2020/12/18 03:45:07;;;;;;;18.12;13.62;;;;;;;1.26;83.28;100519.44;1841536;78;21073;-69
2020/12/18 03:47:42;;;;;;;17.20;12.05;;;;;;;1.27;83.40;100522.44;1787505;78;21125;-69
2020/12/18 03:50:11;;;;;;;16.05;12.13;;;;;;;1.26;83.21;100518.16;1838195;78;21501;-69
2020/12/18 03:52:39;;;;;;;14.05;11.05;;;;;;;1.23;83.32;100511.29;1841550;78;21193;-69
2020/12/18 03:55:07;;;;;;;15.28;11.57;;;;;;;1.21;83.30;100514.67;1841532;78;21121;-70
2020/12/18 03:57:53;;;;;;;15.80;12.23;;;;;;;1.19;83.62;100512.53;1841687;77;21557;-69
2020/12/18 04:00:39;;;;;;;15.15;12.23;;;;;;;1.22;83.73;100507.42;1841616;77;21501;-69
2020/12/18 04:03:08;;;;;;;17.37;12.07;;;;;;;1.23;83.76;100499.75;1841550;78;21053;-70
2020/12/18 04:05:36;;;;;;;16.20;12.07;;;;;;;1.28;83.85;100505.80;1841604;78;21554;-70
2020/12/18 04:08:06;;;;;;;15.53;11.70;;;;;;;1.32;83.80;100502.45;1841488;78;21121;-70
2020/12/18 04:10:53;;;;;;;16.70;12.15;;;;;;;1.38;83.77;100508.08;1841560;78;21097;-69
2020/12/18 04:13:29;;;;;;;20.02;14.20;;;;;;;1.39;83.58;100502.11;1794271;78;21192;-69
2020/12/18 04:15:57;;;;;;;16.95;13.43;;;;;;;1.36;83.61;100507.20;1808566;79;21196;-69
2020/12/18 04:18:26;;;;;;;21.97;14.68;;;;;;;1.35;83.72;100501.63;1808568;79;21534;-69
2020/12/18 04:20:53;;;;;;;17.17;13.40;;;;;;;1.31;83.48;100499.44;1808251;79;21541;-69
2020/12/18 04:23:37;;;;;;;18.52;13.08;;;;;;;1.31;83.50;100500.72;1873637;76;22707;-69
2020/12/18 04:26:15;;;;;;;18.25;13.28;;;;;;;1.26;83.59;100502.78;1840857;78;21085;-70
2020/12/18 04:28:43;;;;;;;17.42;13.45;;;;;;;1.25;83.80;100501.05;1841695;78;21486;-70
2020/12/18 04:31:12;;;;;;;18.48;13.53;;;;;;;1.28;83.75;100503.25;1841498;78;21066;-70
2020/12/18 04:33:40;;;;;;;21.30;14.25;;;;;;;1.28;83.86;100511.35;1841654;78;20983;-69
2020/12/18 04:36:08;;;;;;;18.62;13.85;;;;;;;1.29;83.81;100514.36;1841609;78;21546;-69
2020/12/18 04:38:37;;;;;;;20.08;14.30;;;;;;;1.32;83.84;100519.52;1841200;78;21117;-70
2020/12/18 04:41:07;;;;;;;18.27;13.10;;;;;;;1.35;83.67;100515.30;1841033;78;21061;-70
2020/12/18 04:43:45;;;;;;;21.20;14.70;;;;;;;1.35;83.70;100514.44;1840981;78;21474;-69
2020/12/18 04:46:17;;;;;;;22.80;15.65;;;;;;;1.35;83.66;100514.02;1840744;78;21084;-69
2020/12/18 04:48:47;;;;;;;20.20;14.07;;;;;;;1.36;83.68;100508.05;1811284;78;21577;-69
2020/12/18 04:51:19;;;;;;;21.33;14.13;;;;;;;1.35;83.49;100520.43;1841514;77;21156;-70
2020/12/18 04:53:50;;;;;;;20.05;15.03;;;;;;;1.30;83.58;100518.64;1840940;78;22002;-69
2020/12/18 04:56:24;;;;;;;22.02;16.50;;;;;;;1.28;83.67;100512.22;1840289;78;21097;-69
2020/12/18 04:59:06;;;;;;;26.37;19.07;;;;;;;1.31;83.93;100521.65;1840605;77;21049;-68
2020/12/18 05:01:35;;;;;;;28.80;20.57;;;;;;;1.33;83.92;100518.27;1828634;78;21080;-68
2020/12/18 05:04:05;;;;;;;33.92;24.02;;;;;;;1.36;83.91;100514.47;1841320;77;21073;-69
2020/12/18 05:06:34;;;;;;;34.55;24.95;;;;;;;1.41;83.92;100517.48;1841520;78;21348;-68
2020/12/18 05:09:02;;;;;;;27.98;19.70;;;;;;;1.46;83.82;100515.42;1841483;78;21065;-69
2020/12/18 05:11:30;;;;;;;29.57;19.37;;;;;;;1.47;83.54;100510.73;1841513;77;21073;-68
2020/12/18 05:14:05;;;;;;;32.75;22.17;;;;;;;1.50;83.40;100512.05;1827577;78;21069;-68
2020/12/18 05:16:35;;;;;;;32.05;21.70;;;;;;;1.50;83.52;100515.04;1807974;79;21054;-69
2020/12/18 05:19:22;;;;;;;29.00;23.40;;;;;;;1.60;83.58;100517.71;1873859;76;27844;-69
2020/12/18 05:21:51;;;;;;;26.25;19.65;;;;;;;1.66;83.34;100514.36;1790430;77;21033;-70
2020/12/18 05:24:21;;;;;;;29.90;20.20;;;;;;;1.73;83.14;100518.73;1825409;77;21208;-70
2020/12/18 05:26:50;;;;;;;25.32;19.52;;;;;;;1.77;83.10;100528.61;1828546;77;21621;-70
2020/12/18 05:29:18;;;;;;;26.80;19.80;;;;;;;1.80;82.92;100525.63;1828190;77;21510;-70
2020/12/18 05:32:00;;;;;;;23.02;18.23;;;;;;;1.86;82.87;100526.13;1873644;76;22668;-70
2020/12/18 05:34:32;;;;;;;20.72;16.87;;;;;;;1.81;82.60;100531.20;1815630;78;21101;-69
2020/12/18 05:37:05;;;;;;;26.27;18.27;;;;;;;1.80;82.54;100533.78;1840487;77;21408;-69
2020/12/18 05:39:37;;;;;;;24.52;18.15;;;;;;;1.80;82.58;100533.32;1839268;77;21486;-69
2020/12/18 05:42:05;;;;;;;19.27;13.80;;;;;;;1.82;82.44;100529.07;1841644;77;21545;-69
2020/12/18 05:44:34;;;;;;;20.62;15.03;;;;;;;1.85;82.41;100535.94;1841293;78;21000;-69
2020/12/18 05:47:09;;;;;;;18.27;14.50;;;;;;;1.84;82.23;100534.22;1825640;78;21144;-69
2020/12/18 05:49:40;;;;;;;25.88;14.78;;;;;;;1.80;82.09;100535.06;1841476;77;22078;-69
2020/12/18 05:52:20;;;;;;;26.68;17.20;;;;;;;1.77;82.33;100535.87;1840705;78;21073;-69
2020/12/18 05:54:49;;;;;;;28.87;19.90;;;;;;;1.76;82.20;100535.44;1810728;77;21054;-69
2020/12/18 05:57:17;;;;;;;25.75;19.17;;;;;;;1.71;82.22;100535.37;1840055;77;21581;-70
2020/12/18 05:59:56;;;;;;;32.17;22.05;;;;;;;1.71;82.37;100542.22;1839086;77;21704;-70
2020/12/18 06:02:28;;;;;;;29.42;20.35;;;;;;;1.69;82.26;100528.52;1804029;78;21542;-72
2020/12/18 06:04:58;;;;;;;30.88;20.57;;;;;;;1.67;82.64;100540.45;1835116;78;21108;-70
2020/12/18 06:07:39;;;;;;;26.68;19.37;;;;;;;1.74;82.66;100540.97;1792804;79;23254;-69
2020/12/18 06:10:16;;;;;;;28.25;20.10;;;;;;;1.67;82.77;100537.88;1783034;80;21079;-69
2020/12/18 06:13:03;;;;;;;23.50;16.97;;;;;;;1.68;82.83;100538.33;1785098;80;21634;-69
2020/12/18 06:15:50;;;;;;;25.62;18.35;;;;;;;1.79;82.74;100545.73;1872600;75;22742;-69
2020/12/18 06:18:20;;;;;;;20.52;15.65;;;;;;;1.79;82.63;100546.16;1810893;78;21549;-69
2020/12/18 06:20:47;;;;;;;20.55;15.32;;;;;;;1.80;82.45;100549.16;1809776;77;21493;-70
2020/12/18 06:23:16;;;;;;;25.32;16.95;;;;;;;1.79;82.43;100545.73;1841211;77;20954;-70
2020/12/18 06:25:50;;;;;;;25.05;19.35;;;;;;;1.79;82.31;100552.16;1837661;77;21479;-70
2020/12/18 06:28:48;;;;;;;24.95;18.87;;;;;;;1.78;82.36;100556.84;1819882;78;21066;-70
2020/12/18 06:31:27;;;;;;;20.30;15.88;;;;;;;1.75;82.40;100550.81;1796594;77;21273;-71
2020/12/18 06:34:27;;;;;;;22.10;17.25;;;;;;;1.80;82.44;100557.69;1798153;78;21883;-71
2020/12/18 06:37:30;;;;;;;26.80;17.70;;;;;;;1.79;82.22;100559.84;1841498;78;20990;-68
2020/12/18 06:40:31;;;;;;;25.80;18.67;;;;;;;1.87;82.24;100555.64;1889984;75;22651;-69
2020/12/18 06:43:36;;;;;;;25.48;19.42;;;;;;;1.85;82.16;100564.16;1860926;77;21505;-69
2020/12/18 06:46:12;;;;;;;22.48;17.52;;;;;;;1.85;82.05;100567.59;1855443;77;21192;-71
2020/12/18 06:48:59;;;;;;;23.50;16.60;;;;;;;1.82;82.02;100561.13;1838035;77;21148;-75
2020/12/18 06:51:29;;;;;;;23.73;16.90;;;;;;;1.78;82.11;100568.80;1786928;80;21175;-66
2020/12/18 06:54:24;;;;;;;27.50;19.25;;;;;;;1.79;82.33;100562.83;1889053;76;22867;-68
2020/12/18 06:56:54;;;;;;;27.95;20.17;;;;;;;1.75;82.35;100558.50;1857979;77;21144;-66
2020/12/18 06:59:23;;;;;;;34.40;22.15;;;;;;;1.80;82.29;100561.53;1860502;77;21441;-67
2020/12/18 07:01:51;;;;;;;40.58;28.30;;;;;;;1.84;82.34;100562.02;1860793;77;21994;-66
2020/12/18 07:04:20;;;;;;;42.10;28.70;;;;;;;1.86;82.00;100566.75;1859745;77;21257;-66
2020/12/18 07:06:48;;;;;;;42.70;31.42;;;;;;;1.87;82.00;100559.91;1860245;77;21160;-66
2020/12/18 07:09:17;;;;;;;44.40;33.75;;;;;;;1.91;82.01;100562.95;1860709;77;21056;-66
2020/12/18 07:11:46;;;;;;;37.98;28.20;;;;;;;1.95;82.00;100556.59;1860817;77;21357;-68
2020/12/18 07:14:16;;;;;;;31.73;23.73;;;;;;;1.98;81.90;100560.48;1845067;77;21124;-67
2020/12/18 07:16:55;;;;;;;35.28;23.62;;;;;;;2.01;81.95;100559.63;1795984;78;20981;-66
2020/12/18 07:19:24;;;;;;;27.30;20.10;;;;;;;2.08;81.70;100562.70;1795534;78;21656;-67
2020/12/18 07:22:21;;;;;;;30.33;24.27;;;;;;;2.18;81.78;100550.84;1894453;74;28430;-68
2020/12/18 07:24:49;;;;;;;29.50;22.65;;;;;;;2.23;81.42;100553.86;1848495;77;21104;-66
2020/12/18 07:27:18;;;;;;;28.17;21.60;;;;;;;2.31;81.21;100555.23;1849694;77;21379;-67
2020/12/18 07:29:45;;;;;;;24.07;18.70;;;;;;;2.34;80.96;100557.83;1849683;77;21022;-67
2020/12/18 07:32:13;;;;;;;23.57;16.30;;;;;;;2.30;80.93;100555.66;1849815;77;20918;-67
2020/12/18 07:34:42;;;;;;;25.45;17.77;;;;;;;2.28;80.94;100554.78;1819613;77;21049;-67
2020/12/18 07:37:12;;;;;;;17.95;14.35;;;;;;;2.30;80.99;100557.36;1849804;77;21120;-68
2020/12/18 07:39:40;;;;;;;22.45;14.58;;;;;;;2.32;80.90;100547.55;1820272;77;22446;-66
2020/12/18 07:42:08;;;;;;;18.95;13.35;;;;;;;2.34;80.92;100555.27;1849595;77;21113;-67
2020/12/18 07:44:36;;;;;;;20.97;14.78;;;;;;;2.35;80.71;100550.57;1849551;77;21532;-67
2020/12/18 07:47:04;;;;;;;22.40;15.25;;;;;;;2.32;80.70;100554.39;1849535;77;21068;-68
2020/12/18 07:49:32;;;;;;;21.27;15.03;;;;;;;2.29;80.61;100559.06;1819585;77;21034;-67
2020/12/18 07:52:05;;;;;;;29.37;19.67;;;;;;;2.28;80.68;100550.92;1849437;77;21414;-67
2020/12/18 07:54:33;;;;;;;27.85;18.98;;;;;;;2.30;80.62;100554.80;1849623;77;21053;-68
2020/12/18 07:57:08;;;;;;;28.90;19.35;;;;;;;2.29;80.58;100560.35;1849802;77;21080;-67
2020/12/18 07:59:38;;;;;;;29.65;19.30;;;;;;;2.27;80.73;100553.48;1849731;77;21104;-67
2020/12/18 08:02:23;;;;;;;21.20;14.38;;;;;;;2.29;80.94;100555.22;1819931;77;21583;-68
2020/12/18 08:05:00;;;;;;;23.75;16.67;;;;;;;2.35;80.96;100556.56;1849756;77;21211;-67
2020/12/18 08:07:30;;;;;;;24.98;17.95;;;;;;;2.40;80.70;100556.58;1849669;77;21081;-68
2020/12/18 08:10:02;;;;;;;21.87;16.48;;;;;;;2.42;80.75;100563.88;1849687;77;21093;-67
2020/12/18 08:12:31;;;;;;;;;;;;;;;2.43;80.62;100560.47;1852465;77;21057;-67
2020/12/18 08:15:13;;;;;;;29.25;19.45;;;;;;;2.39;80.51;100562.59;1846595;76;20220;-66
2020/12/18 08:17:41;;;;;;;33.15;21.37;;;;;;;2.35;80.66;100560.84;1807354;78;22267;-67
2020/12/18 08:20:11;;;;;;;33.48;22.15;;;;;;;2.31;80.80;100562.94;1826057;78;21126;-68
2020/12/18 08:22:44;;;;;;;33.33;20.97;;;;;;;2.30;80.86;100559.50;1807235;78;21114;-68
2020/12/18 08:25:13;;;;;;;26.40;16.62;;;;;;;2.31;81.11;100557.38;1826219;78;21137;-67
2020/12/18 08:27:47;;;;;;;26.73;17.42;;;;;;;2.36;80.99;100562.14;1807188;79;21048;-66
2020/12/18 08:30:19;;;;;;;20.32;15.08;;;;;;;2.36;80.87;100554.86;1826197;78;21366;-67
2020/12/18 08:32:51;;;;;;;29.37;19.40;;;;;;;2.38;80.83;100553.17;1806799;79;21111;-67
2020/12/18 08:35:23;;;;;;;29.42;21.62;;;;;;;2.38;80.89;100543.77;1825386;78;21158;-67
2020/12/18 08:37:56;;;;;;;30.10;18.87;;;;;;;2.39;80.83;100548.47;1806650;79;21076;-67
2020/12/18 08:40:25;;;;;;;32.17;18.67;;;;;;;2.36;80.90;100551.88;1825414;78;21075;-66
2020/12/18 08:43:02;;;;;;;25.08;16.30;;;;;;;2.34;80.82;100550.13;1806697;79;22430;-71
2020/12/18 08:45:30;;;;;;;21.95;15.30;;;;;;;2.29;80.86;100550.08;1824586;78;21154;-68
2020/12/18 08:47:58;;;;;;;20.37;14.60;;;;;;;2.24;81.09;100548.31;1806569;79;21131;-68
2020/12/18 08:50:26;;;;;;;25.27;17.95;;;;;;;2.23;81.26;100545.30;1825587;78;21178;-66
2020/12/18 08:52:54;;;;;;;24.20;16.85;;;;;;;2.24;81.55;100540.61;1806713;79;21366;-66
2020/12/18 08:55:22;;;;;;;23.55;16.37;;;;;;;2.32;81.63;100545.41;1824602;78;21357;-68
2020/12/18 08:57:49;;;;;;;25.95;18.60;;;;;;;2.36;81.53;100542.88;1805976;79;21548;-67
2020/12/18 09:00:20;;;;;;;25.75;16.87;;;;;;;2.40;81.38;100543.74;1824340;78;21575;-68
2020/12/18 09:02:58;;;;;;;23.87;16.42;;;;;;;2.40;81.32;100538.19;1806371;79;21210;-67
2020/12/18 09:05:30;;;;;;;22.70;15.08;;;;;;;2.39;81.17;100540.77;1825574;78;21174;-66
2020/12/18 09:08:06;;;;;;;21.37;14.70;;;;;;;2.38;81.37;100539.05;1806376;79;21359;-68
2020/12/18 09:10:43;;;;;;;24.43;15.23;;;;;;;2.41;81.56;100533.91;1825039;78;21230;-70
2020/12/18 09:13:25;;;;;;;26.50;16.82;;;;;;;2.45;81.41;100530.95;1806178;78;21611;-68
2020/12/18 09:16:02;;;;;;;27.87;17.65;;;;;;;2.45;81.41;100531.81;1797830;78;21107;-67
2020/12/18 09:18:36;;;;;;;27.98;16.10;;;;;;;2.49;81.31;100526.28;1805956;79;21622;-70
2020/12/18 09:21:16;;;;;;;23.65;15.68;;;;;;;2.53;81.26;100520.33;1822792;78;22574;-67
2020/12/18 09:23:49;;;;;;;24.90;17.02;;;;;;;2.57;81.19;100524.23;1820314;78;21072;-68
2020/12/18 09:26:24;;;;;;;24.92;17.55;;;;;;;2.59;81.08;100514.83;1759011;81;21682;-69
2020/12/18 09:28:52;;;;;;;29.15;18.07;;;;;;;2.59;81.00;100516.11;1809588;79;21158;-68
2020/12/18 09:31:23;;;;;;;22.75;15.53;;;;;;;2.61;81.10;100513.52;1760390;81;21064;-69
2020/12/18 09:33:51;;;;;;;24.70;16.12;;;;;;;2.58;80.92;100507.11;1759258;81;21316;-68
2020/12/18 09:36:19;;;;;;;26.82;17.45;;;;;;;2.59;81.03;100507.55;1809750;79;21163;-68
2020/12/18 09:38:49;;;;;;;26.45;16.77;;;;;;;2.63;81.07;100506.70;1759388;81;21228;-68
2020/12/18 09:41:21;;;;;;;26.80;16.73;;;;;;;2.64;80.95;100512.27;1810738;79;21132;-67
2020/12/18 09:43:49;;;;;;;29.07;18.87;;;;;;;2.68;80.88;100508.88;1751980;81;21591;-71
2020/12/18 09:46:23;;;;;;;25.82;16.17;;;;;;;2.69;80.80;100510.59;1732034;81;21298;-71
2020/12/18 09:48:50;;;;;;;28.20;17.42;;;;;;;2.73;80.85;100510.64;1774826;80;21175;-70
2020/12/18 09:51:19;;;;;;;24.55;16.12;;;;;;;2.73;80.77;100508.07;1725593;83;21303;-69
2020/12/18 09:53:48;;;;;;;24.60;16.57;;;;;;;2.75;80.79;100505.09;1774765;79;21195;-70
2020/12/18 09:56:17;;;;;;;22.58;15.58;;;;;;;2.81;80.78;100500.81;1725980;81;21212;-70
2020/12/18 09:58:45;;;;;;;23.12;15.08;;;;;;;2.80;80.70;100500.41;1775144;80;22226;-67
2020/12/18 10:01:17;;;;;;;27.48;16.95;;;;;;;2.85;80.82;100493.14;1775476;80;21191;-70
2020/12/18 10:03:46;;;;;;;23.57;15.20;;;;;;;2.88;80.41;100497.02;1755976;81;21199;-70
2020/12/18 10:06:26;;;;;;;21.57;15.38;;;;;;;2.90;80.32;100497.03;1755486;81;21203;-69
2020/12/18 10:08:55;;;;;;;26.02;16.65;;;;;;;2.89;80.23;100494.03;1731277;81;21208;-70
2020/12/18 10:11:29;;;;;;;26.87;16.12;;;;;;;2.90;80.18;100496.61;1757839;81;22762;-70
2020/12/18 10:14:09;;;;;;;23.42;15.80;;;;;;;2.97;80.11;100494.52;1884116;76;23575;-70
2020/12/18 10:16:40;;;;;;;26.73;17.17;;;;;;;2.93;80.00;100496.63;1761457;80;21170;-69
2020/12/18 10:19:08;;;;;;;25.43;16.77;;;;;;;2.94;80.11;100494.92;1772221;81;22478;-68
2020/12/18 10:21:36;;;;;;;26.23;16.45;;;;;;;2.96;79.93;100499.65;1771360;80;21190;-68
2020/12/18 10:24:12;;;;;;;30.10;17.37;;;;;;;2.92;79.96;100496.20;1771170;81;21211;-70
2020/12/18 10:26:42;;;;;;;23.98;16.25;;;;;;;2.89;79.88;100503.88;1768212;80;21209;-68
2020/12/18 10:29:10;;;;;;;26.68;16.20;;;;;;;2.88;79.96;100496.16;1769429;81;21143;-68
2020/12/18 10:31:41;;;;;;;26.10;15.85;;;;;;;2.85;80.01;100494.43;1771795;80;22417;-68
2020/12/18 10:34:08;;;;;;;24.77;16.45;;;;;;;2.88;80.25;100491.02;1766402;81;21184;-68
2020/12/18 10:36:39;;;;;;;27.30;18.12;;;;;;;2.94;80.28;100489.36;1751675;80;21127;-68
2020/12/18 10:39:07;;;;;;;28.07;18.45;;;;;;;2.96;80.03;100495.80;1835121;78;21131;-68
2020/12/18 10:41:38;;;;;;;28.65;17.05;;;;;;;2.96;80.17;100494.51;1836385;78;21115;-67
2020/12/18 10:44:07;;;;;;;32.17;20.68;;;;;;;2.94;79.93;100494.50;1833485;78;21372;-68
2020/12/18 10:46:35;;;;;;;31.12;18.48;;;;;;;2.91;80.17;100487.19;1816475;78;21491;-68
2020/12/18 10:49:03;;;;;;;31.02;18.92;;;;;;;2.92;80.29;100486.34;1787690;79;21172;-67
2020/12/18 10:51:31;;;;;;;32.23;20.70;;;;;;;2.96;80.39;100483.80;1787473;78;21116;-69
2020/12/18 10:53:59;;;;;;;28.75;19.10;;;;;;;3.01;80.41;100483.80;1816302;79;21069;-68
2020/12/18 10:56:26;;;;;;;47.90;27.75;;;;;;;3.05;80.34;100483.84;1816386;78;21349;-67
2020/12/18 10:58:54;;;;;;;43.55;24.92;;;;;;;3.06;80.29;100478.27;1786167;79;21173;-68
2020/12/18 11:01:22;;;;;;;30.68;18.75;;;;;;;3.08;80.15;100486.85;1816353;78;21140;-68
2020/12/18 11:03:50;;;;;;;23.67;16.42;;;;;;;3.02;80.17;100481.67;1816426;78;21604;-68
2020/12/18 11:06:18;;;;;;;26.48;17.27;;;;;;;2.98;80.05;100488.53;1816294;78;21068;-67
2020/12/18 11:08:46;;;;;;;31.68;17.95;;;;;;;2.92;80.30;100487.20;1816257;78;21360;-68
2020/12/18 11:11:14;;;;;;;27.48;16.77;;;;;;;2.89;80.47;100488.47;1816243;78;21151;-68
2020/12/18 11:13:43;;;;;;;25.15;15.85;;;;;;;2.89;80.70;100482.47;1818390;78;21151;-68
2020/12/18 11:16:11;;;;;;;24.92;15.05;;;;;;;2.91;80.77;100485.48;1819301;78;21156;-68
2020/12/18 11:18:39;;;;;;;29.70;16.20;;;;;;;2.88;80.69;100485.89;1820855;76;21641;-69
2020/12/18 11:21:08;;;;;;;22.42;13.98;;;;;;;2.87;80.81;100482.45;1817584;78;21808;-68
2020/12/18 11:23:36;;;;;;;23.95;15.40;;;;;;;2.89;80.76;100482.05;1817705;77;21098;-67
2020/12/18 11:26:04;;;;;;;26.33;15.95;;;;;;;2.87;80.81;100479.89;1820242;76;21657;-69
2020/12/18 11:28:32;;;;;;;25.75;16.30;;;;;;;2.87;80.97;100479.89;1773099;80;21641;-70
2020/12/18 11:31:00;;;;;;;31.10;16.90;;;;;;;2.92;81.13;100478.63;1774148;80;22257;-69
2020/12/18 11:33:34;;;;;;;25.90;15.08;;;;;;;2.97;81.01;100470.53;1752366;80;21444;-73
2020/12/18 11:36:03;;;;;;;21.95;14.20;;;;;;;3.00;80.87;100471.80;1784736;80;21181;-72
2020/12/18 11:38:32;;;;;;;24.25;15.72;;;;;;;3.04;80.69;100478.69;1782827;78;21189;-69